Tiverton, Rhode Island
Current Conditions -  °F | °C
As of 1:53 AM on Sunday 23 Nov 2014 (Local Time) from KUUU Reporting Station
Broken Clouds Broken Clouds  
Wind Chill:   Ceiling: 11000
Heat Index:   Visibility: 10mi
Dew Point: -2°   Wind: 8mph
Humidity: 51%   Direction: 220°SW
Pressure: 30.13"   Gusts: NA
Location:  41.62°N, 71.21°W
Report Text: KUUU 230653Z AUTO 22007KT 180V250 10SM BKN110 08/M02 A3013 RMK AO2 SLP202 T00781017
Loading
Personal Weather Stations






























Interactive Weather Map New forecast layout! Learn more

10-Day Weather Forecast

Advertisements
Track Severe Weather on mobile